Time;durP1;ratioP1;P1;durP2;ratioP2;P2;SDS_P1;SDS_P2;PMS_P1;PMS_P2;Temp;Humidity;BMP_temperature;BMP_pressure;BME280_temperature;BME280_humidity;BME280_pressure;Samples;Min_cycle;Max_cycle;Signal;HPM_P1;HPM_P2
2022/10/22 00:01:43;;;;;;;20.70;18.00;;;14.50;1.00;;;;;;6237200;23;20447;-82
2022/10/22 00:04:11;;;;;;;24.47;19.37;;;14.50;1.00;;;;;;6234517;23;20952;-81
2022/10/22 00:06:41;;;;;;;23.40;20.40;;;14.40;1.00;;;;;;6159325;23;20481;-78
2022/10/22 00:09:11;;;;;;;26.30;21.87;;;14.50;1.00;;;;;;6204243;23;20410;-79
2022/10/22 00:11:42;;;;;;;31.03;24.70;;;14.50;1.00;;;;;;6203871;23;20402;-80
2022/10/22 00:14:12;;;;;;;25.73;20.20;;;14.50;1.00;;;;;;6186244;23;20394;-82
2022/10/22 00:16:52;;;;;;;25.73;18.40;;;14.50;1.00;;;;;;6180337;23;20409;-82
2022/10/22 00:19:32;;;;;;;24.00;18.50;;;14.50;1.00;;;;;;6206854;23;21142;-81
2022/10/22 00:21:59;;;;;;;20.97;17.40;;;14.50;1.00;;;;;;6202534;23;20894;-79
2022/10/22 00:24:26;;;;;;;20.77;18.23;;;14.50;1.00;;;;;;6196247;23;20432;-79
2022/10/22 00:26:53;;;;;;;22.40;17.63;;;14.60;1.00;;;;;;6197120;23;20426;-79
2022/10/22 00:29:20;;;;;;;23.00;18.40;;;14.60;1.00;;;;;;6159657;23;20949;-81
2022/10/22 00:31:50;;;;;;;24.07;20.00;;;14.60;1.00;;;;;;6178428;23;20432;-80
2022/10/22 00:34:17;;;;;;;26.90;20.33;;;14.60;1.00;;;;;;6173982;23;21410;-81
2022/10/22 00:36:45;;;;;;;33.77;26.43;;;14.60;1.00;;;;;;6196700;23;20410;-81
2022/10/22 00:39:16;;;;;;;26.13;21.70;;;14.50;1.00;;;;;;6194973;23;20442;-79
2022/10/22 00:41:48;;;;;;;24.13;19.27;;;14.50;1.00;;;;;;6195631;23;20496;-82
2022/10/22 00:44:50;;;;;;;22.80;19.57;;;14.50;1.00;;;;;;6195302;23;20515;-79
2022/10/22 00:47:20;;;;;;;26.10;20.43;;;14.50;1.00;;;;;;6210981;23;20500;-80
2022/10/22 00:49:49;;;;;;;26.90;22.00;;;14.50;1.00;;;;;;6223717;23;21034;-80
2022/10/22 00:52:18;;;;;;;26.40;20.53;;;14.60;1.00;;;;;;6224307;23;20421;-80
2022/10/22 00:54:44;;;;;;;26.80;20.80;;;14.60;1.00;;;;;;6227203;23;20435;-81
2022/10/22 00:57:12;;;;;;;34.73;22.20;;;14.50;1.00;;;;;;6226914;23;20438;-81
2022/10/22 00:59:44;;;;;;;24.30;19.57;;;14.50;1.00;;;;;;6184693;23;20427;-80
2022/10/22 01:02:14;;;;;;;25.33;21.30;;;14.50;1.00;;;;;;6227088;23;20424;-79
2022/10/22 01:04:41;;;;;;;29.40;22.33;;;14.50;1.00;;;;;;6226605;23;20946;-80
2022/10/22 01:07:25;;;;;;;28.03;19.57;;;14.50;1.00;;;;;;6227863;23;20460;-79
2022/10/22 01:10:07;;;;;;;33.70;22.43;;;14.50;1.00;;;;;;6226395;23;20423;-80
2022/10/22 01:12:47;;;;;;;24.80;20.80;;;14.50;1.00;;;;;;6223785;23;20973;-81
2022/10/22 01:15:24;;;;;;;30.80;22.47;;;14.50;1.00;;;;;;6225176;23;20439;-80
2022/10/22 01:17:59;;;;;;;27.00;21.07;;;14.40;1.00;;;;;;6221970;23;20452;-80
2022/10/22 01:20:44;;;;;;;29.17;21.80;;;14.40;1.00;;;;;;6221606;23;20466;-80
2022/10/22 01:23:22;;;;;;;30.10;21.87;;;14.50;1.00;;;;;;6220779;23;20427;-81
2022/10/22 01:25:58;;;;;;;29.33;21.80;;;14.50;1.00;;;;;;6221755;23;20419;-81
2022/10/22 01:28:41;;;;;;;25.07;19.70;;;14.50;1.00;;;;;;6221062;23;20428;-79
2022/10/22 01:31:10;;;;;;;28.43;20.93;;;14.50;1.00;;;;;;6222547;23;20442;-80
2022/10/22 01:33:39;;;;;;;31.63;20.60;;;14.50;1.00;;;;;;6222527;23;20426;-80
2022/10/22 01:36:10;;;;;;;24.43;19.70;;;14.50;1.00;;;;;;6223994;23;20831;-80
2022/10/22 01:38:39;;;;;;;25.77;18.30;;;14.50;1.00;;;;;;6221688;23;20487;-81
2022/10/22 01:41:07;;;;;;;28.33;20.10;;;14.50;1.00;;;;;;6221738;23;20423;-80
2022/10/22 01:43:34;;;;;;;22.37;17.53;;;14.50;1.00;;;;;;6220385;23;20420;-80
2022/10/22 01:46:05;;;;;;;21.53;18.20;;;14.60;1.00;;;;;;6202959;23;20440;-80
2022/10/22 01:48:40;;;;;;;26.67;18.93;;;14.60;1.00;;;;;;6191356;23;20428;-80
2022/10/22 01:51:19;;;;;;;23.13;17.77;;;14.70;1.00;;;;;;6191263;23;20419;-79
2022/10/22 01:53:54;;;;;;;23.33;19.00;;;14.60;1.00;;;;;;6190110;23;20418;-80
2022/10/22 01:56:49;;;;;;;23.87;18.50;;;14.70;1.00;;;;;;6194101;23;20441;-81
2022/10/22 01:59:22;;;;;;;24.50;18.47;;;14.70;1.00;;;;;;6191871;23;20446;-80
2022/10/22 02:01:55;;;;;;;24.43;17.97;;;14.70;1.00;;;;;;6174102;23;20742;-79
2022/10/22 02:04:27;;;;;;;22.33;17.97;;;14.70;1.00;;;;;;6190934;23;20434;-79
2022/10/22 02:07:00;;;;;;;23.00;17.00;;;14.70;1.00;;;;;;6191436;23;20481;-79
2022/10/22 02:09:31;;;;;;;25.60;19.17;;;14.70;1.00;;;;;;6191232;23;20457;-79
2022/10/22 02:12:02;;;;;;;23.30;18.87;;;14.70;1.00;;;;;;6191824;23;20422;-81
2022/10/22 02:14:31;;;;;;;25.57;18.70;;;14.70;1.00;;;;;;6177657;23;21062;-79
2022/10/22 02:17:01;;;;;;;22.97;18.40;;;14.60;1.00;;;;;;6193831;23;20932;-81
2022/10/22 02:19:40;;;;;;;22.13;17.73;;;14.60;1.00;;;;;;6177460;23;20790;-81
2022/10/22 02:22:10;;;;;;;27.97;18.30;;;14.60;1.00;;;;;;6192498;23;20458;-81
2022/10/22 02:24:39;;;;;;;22.77;17.60;;;14.70;1.00;;;;;;6192700;23;20426;-81
2022/10/22 02:27:11;;;;;;;24.70;18.67;;;14.70;1.00;;;;;;6192884;23;20422;-81
2022/10/22 02:29:43;;;;;;;23.67;17.27;;;14.70;1.00;;;;;;6192791;23;20431;-80
2022/10/22 02:32:16;;;;;;;22.27;17.17;;;14.70;1.00;;;;;;6193330;23;20662;-80
2022/10/22 02:34:44;;;;;;;24.47;18.73;;;14.70;1.00;;;;;;6191588;23;20479;-80
2022/10/22 02:37:13;;;;;;;24.93;18.00;;;14.70;1.00;;;;;;6194803;23;20429;-82
2022/10/22 02:39:41;;;;;;;24.17;17.60;;;14.60;1.00;;;;;;6194469;23;20436;-81
2022/10/22 02:42:11;;;;;;;24.30;17.60;;;14.60;1.00;;;;;;6193288;23;20424;-83
2022/10/22 02:44:42;;;;;;;23.53;17.30;;;14.60;1.00;;;;;;6193795;23;20477;-80
2022/10/22 02:47:11;;;;;;;23.40;18.00;;;14.50;1.00;;;;;;6223368;23;20768;-79
2022/10/22 02:49:37;;;;;;;25.73;18.10;;;14.50;1.00;;;;;;6222590;23;20818;-81
2022/10/22 02:52:04;;;;;;;23.80;18.20;;;14.50;1.00;;;;;;6223278;23;20861;-80
2022/10/22 02:54:31;;;;;;;23.00;17.47;;;14.50;1.00;;;;;;6223163;23;20417;-80
2022/10/22 02:56:58;;;;;;;25.67;18.80;;;14.40;1.00;;;;;;6223829;23;20428;-80
2022/10/22 02:59:26;;;;;;;24.50;18.13;;;14.40;1.00;;;;;;6224427;23;20425;-80
2022/10/22 03:01:53;;;;;;;23.03;18.73;;;14.40;1.00;;;;;;6193267;23;20980;-80
2022/10/22 03:04:24;;;;;;;21.17;16.47;;;14.40;1.00;;;;;;6195879;23;20429;-80
2022/10/22 03:06:53;;;;;;;23.07;17.67;;;14.40;1.00;;;;;;6224022;23;20428;-79
2022/10/22 03:09:22;;;;;;;23.73;18.90;;;14.40;1.00;;;;;;6222548;23;20464;-78
2022/10/22 03:11:49;;;;;;;25.37;18.53;;;14.40;1.00;;;;;;6221813;23;20417;-80
2022/10/22 03:14:15;;;;;;;21.23;16.77;;;14.50;1.00;;;;;;6223771;23;20492;-79
2022/10/22 03:16:42;;;;;;;22.53;15.43;;;14.50;1.00;;;;;;6221555;23;20940;-80
2022/10/22 03:19:09;;;;;;;21.73;18.30;;;14.50;1.00;;;;;;6222356;23;20971;-82
2022/10/22 03:21:42;;;;;;;24.00;18.30;;;14.50;1.00;;;;;;6192780;23;20496;-80
2022/10/22 03:24:11;;;;;;;26.57;20.47;;;14.50;1.00;;;;;;6203893;23;20475;-80
2022/10/22 03:26:41;;;;;;;28.00;18.83;;;14.40;1.00;;;;;;6191989;23;20435;-82
2022/10/22 03:29:09;;;;;;;26.83;18.83;;;14.30;1.00;;;;;;6194187;23;20450;-81
2022/10/22 03:31:36;;;;;;;25.40;18.37;;;14.20;1.00;;;;;;6192101;23;20385;-81
2022/10/22 03:34:03;;;;;;;22.73;17.77;;;14.10;1.00;;;;;;6192812;23;20548;-81
2022/10/22 03:36:31;;;;;;;21.03;17.17;;;14.10;1.00;;;;;;6191837;23;20439;-82
2022/10/22 03:39:01;;;;;;;27.17;17.57;;;14.10;1.00;;;;;;6193102;23;20429;-80
2022/10/22 03:41:30;;;;;;;24.83;18.23;;;14.10;1.00;;;;;;6192643;23;20400;-81
2022/10/22 03:44:04;;;;;;;21.80;17.20;;;14.20;1.00;;;;;;6200454;23;20440;-82
2022/10/22 03:46:33;;;;;;;26.60;17.80;;;14.30;1.00;;;;;;6202449;23;21142;-82
2022/10/22 03:49:01;;;;;;;24.77;18.70;;;14.40;1.00;;;;;;6200158;23;20439;-80
2022/10/22 03:51:34;;;;;;;28.30;19.67;;;14.40;1.00;;;;;;6199962;23;20790;-80
2022/10/22 03:54:03;;;;;;;25.70;18.67;;;14.30;1.00;;;;;;6203784;23;20445;-82
2022/10/22 03:56:31;;;;;;;24.33;18.63;;;14.20;1.00;;;;;;6203242;23;20392;-79
2022/10/22 03:59:02;;;;;;;25.30;16.77;;;14.10;1.00;;;;;;6203481;23;20421;-78
2022/10/22 04:01:32;;;;;;;26.80;18.03;;;14.10;1.00;;;;;;6205417;23;21026;-83
2022/10/22 04:04:02;;;;;;;23.53;17.40;;;14.10;1.00;;;;;;6204298;23;20406;-81
2022/10/22 04:06:34;;;;;;;27.40;20.33;;;14.10;1.00;;;;;;6200851;23;20393;-81
2022/10/22 04:09:02;;;;;;;23.77;18.17;;;14.20;1.00;;;;;;6205757;23;20434;-82
2022/10/22 04:11:32;;;;;;;30.00;22.00;;;14.20;1.00;;;;;;6202397;23;20372;-84
2022/10/22 04:14:06;;;;;;;25.80;20.03;;;14.20;1.00;;;;;;6207451;23;20404;-83
2022/10/22 04:16:34;;;;;;;30.80;21.43;;;14.20;1.00;;;;;;6200091;23;20513;-85
2022/10/22 04:19:04;;;;;;;30.60;21.50;;;14.30;1.00;;;;;;6201710;23;20430;-83
2022/10/22 04:21:32;;;;;;;35.00;24.27;;;14.30;1.00;;;;;;6202096;23;20408;-81
2022/10/22 04:24:00;;;;;;;28.40;21.57;;;14.30;1.00;;;;;;6205204;23;20457;-84
2022/10/22 04:26:32;;;;;;;31.63;22.23;;;14.20;1.00;;;;;;6203805;23;20393;-82
2022/10/22 04:29:02;;;;;;;28.40;22.20;;;14.30;1.00;;;;;;6206702;23;20398;-80
2022/10/22 04:31:31;;;;;;;32.43;23.87;;;14.30;1.00;;;;;;6203695;23;20376;-80
2022/10/22 04:34:04;;;;;;;34.50;25.70;;;14.30;1.00;;;;;;6203814;23;20470;-80
2022/10/22 04:36:32;;;;;;;28.57;22.10;;;14.30;1.00;;;;;;6201913;23;20371;-85
2022/10/22 04:39:00;;;;;;;31.80;21.70;;;14.20;1.00;;;;;;6201654;23;20847;-80
2022/10/22 04:41:36;;;;;;;26.80;20.30;;;14.20;1.00;;;;;;6199388;23;20396;-81
2022/10/22 04:44:04;;;;;;;25.57;21.20;;;14.10;1.00;;;;;;6199402;23;20449;-81
2022/10/22 04:46:40;;;;;;;26.73;19.70;;;14.20;1.00;;;;;;6198242;23;20443;-81
2022/10/22 04:49:10;;;;;;;28.13;21.30;;;14.20;1.00;;;;;;6205050;23;20409;-83
2022/10/22 04:51:37;;;;;;;28.20;21.07;;;14.30;1.00;;;;;;6197036;23;20434;-80
2022/10/22 04:54:04;;;;;;;27.27;20.63;;;14.20;1.00;;;;;;6195798;23;20454;-80
2022/10/22 04:56:37;;;;;;;26.93;19.63;;;14.20;1.00;;;;;;6200196;23;20453;-80
2022/10/22 04:59:12;;;;;;;28.30;20.27;;;14.20;1.00;;;;;;6203013;23;20402;-81
2022/10/22 05:01:51;;;;;;;25.60;19.13;;;14.20;1.00;;;;;;6201683;23;20867;-84
2022/10/22 05:04:19;;;;;;;26.90;19.80;;;14.20;1.00;;;;;;6199415;23;20561;-80
2022/10/22 05:06:52;;;;;;;27.17;19.50;;;14.20;1.00;;;;;;6197727;23;20382;-81
2022/10/22 05:09:20;;;;;;;25.63;18.67;;;14.10;1.00;;;;;;6198151;23;20461;-80
2022/10/22 05:11:55;;;;;;;29.10;19.67;;;14.20;1.00;;;;;;6200978;23;20449;-79
2022/10/22 05:14:26;;;;;;;30.07;19.50;;;14.10;1.00;;;;;;6200332;23;20425;-83
2022/10/22 05:16:59;;;;;;;26.00;19.30;;;14.10;1.00;;;;;;6197818;23;20434;-79
2022/10/22 05:19:45;;;;;;;23.37;18.13;;;14.00;1.00;;;;;;6201138;23;20449;-80
2022/10/22 05:22:12;;;;;;;27.87;20.40;;;14.00;1.00;;;;;;6199734;23;20408;-79
2022/10/22 05:24:39;;;;;;;28.07;19.20;;;13.90;1.00;;;;;;6200475;23;20411;-80
2022/10/22 05:27:22;;;;;;;25.57;19.00;;;13.80;1.00;;;;;;6202332;23;20497;-79
2022/10/22 05:29:50;;;;;;;27.47;18.97;;;13.80;1.00;;;;;;6200507;23;20387;-79
2022/10/22 05:32:28;;;;;;;25.33;19.60;;;13.80;1.00;;;;;;6202451;23;20401;-83
2022/10/22 05:34:58;;;;;;;31.60;18.43;;;13.90;1.00;;;;;;6202767;23;20402;-83
2022/10/22 05:37:28;;;;;;;26.13;19.30;;;13.90;1.00;;;;;;6202682;23;20917;-80
2022/10/22 05:39:55;;;;;;;23.70;19.00;;;13.90;1.00;;;;;;6201493;23;20828;-82
2022/10/22 05:42:31;;;;;;;25.70;20.07;;;13.90;1.00;;;;;;6201453;23;20421;-80
2022/10/22 05:45:08;;;;;;;26.07;18.67;;;13.90;1.00;;;;;;6201976;23;20453;-83
2022/10/22 05:47:35;;;;;;;30.23;21.90;;;14.00;1.00;;;;;;6233655;23;20987;-83
2022/10/22 05:50:04;;;;;;;32.07;24.50;;;14.00;1.00;;;;;;6236481;23;20432;-81
2022/10/22 05:52:32;;;;;;;36.40;24.90;;;14.00;1.00;;;;;;6233682;23;20445;-83
2022/10/22 05:55:02;;;;;;;31.70;23.00;;;14.00;1.00;;;;;;6235475;23;20413;-80
2022/10/22 05:57:33;;;;;;;32.73;24.60;;;14.00;1.00;;;;;;6231072;23;20390;-81
2022/10/22 06:00:00;;;;;;;30.50;22.83;;;14.00;1.00;;;;;;6234174;23;20474;-84
2022/10/22 06:02:33;;;;;;;31.70;23.00;;;14.00;1.00;;;;;;6234514;23;20417;-83
2022/10/22 06:05:11;;;;;;;30.97;24.23;;;14.00;1.00;;;;;;6235380;23;21216;-80
2022/10/22 06:07:42;;;;;;;35.80;25.50;;;14.00;1.00;;;;;;6215591;23;20412;-85
2022/10/22 06:10:15;;;;;;;37.83;27.27;;;14.00;1.00;;;;;;6188687;23;20429;-83
2022/10/22 06:12:43;;;;;;;52.37;33.87;;;14.00;1.00;;;;;;6198391;23;20400;-79
2022/10/22 06:15:14;;;;;;;43.40;28.33;;;13.80;1.00;;;;;;6199544;23;20427;-82
2022/10/22 06:17:41;;;;;;;39.00;26.93;;;13.70;1.00;;;;;;6204296;23;20431;-79
2022/10/22 06:20:13;;;;;;;37.73;28.37;;;13.60;1.00;;;;;;6202657;23;20422;-80
2022/10/22 06:22:42;;;;;;;39.20;27.33;;;13.60;1.00;;;;;;6199836;23;20410;-80
2022/10/22 06:25:13;;;;;;;40.47;23.87;;;13.60;1.00;;;;;;6200159;23;20389;-82
2022/10/22 06:27:41;;;;;;;35.00;23.57;;;13.70;1.00;;;;;;6198370;23;20441;-85
2022/10/22 06:30:20;;;;;;;33.40;25.60;;;13.80;1.00;;;;;;6197716;23;20417;-81
2022/10/22 06:32:54;;;;;;;37.27;25.40;;;13.80;1.00;;;;;;6196209;23;20394;-80
2022/10/22 06:35:24;;;;;;;34.13;26.90;;;13.80;1.00;;;;;;6193118;23;20445;-80
2022/10/22 06:37:52;;;;;;;38.03;25.40;;;13.80;1.00;;;;;;6223436;23;20419;-81
2022/10/22 06:40:19;;;;;;;35.90;25.47;;;13.70;1.00;;;;;;6223573;23;20461;-81
2022/10/22 06:42:46;;;;;;;38.97;25.70;;;13.70;1.00;;;;;;6223268;23;20413;-80
2022/10/22 06:45:18;;;;;;;35.43;25.47;;;13.70;1.00;;;;;;6218824;23;20408;-80
2022/10/22 06:47:47;;;;;;;41.17;28.03;;;13.70;1.00;;;;;;6192401;23;21860;-80
2022/10/22 06:50:14;;;;;;;36.33;24.80;;;13.70;1.00;;;;;;6192193;23;20449;-80
2022/10/22 06:52:43;;;;;;;35.73;25.93;;;13.80;1.00;;;;;;6191694;23;20409;-80
2022/10/22 06:55:12;;;;;;;41.00;23.77;;;13.80;1.00;;;;;;6192186;23;20421;-79
2022/10/22 06:57:41;;;;;;;31.80;21.07;;;13.90;1.00;;;;;;6192756;23;20901;-79
2022/10/22 07:00:12;;;;;;;31.57;24.03;;;13.90;1.00;;;;;;6192453;23;20734;-80
2022/10/22 07:02:43;;;;;;;33.67;23.33;;;13.90;1.00;;;;;;6191059;23;20410;-80
2022/10/22 07:05:12;;;;;;;33.30;21.97;;;13.90;1.00;;;;;;6193000;23;20410;-80
2022/10/22 07:07:42;;;;;;;29.10;20.37;;;14.00;1.00;;;;;;6191131;23;20441;-81
2022/10/22 07:10:09;;;;;;;26.53;20.17;;;14.00;1.00;;;;;;6190442;23;20491;-81
2022/10/22 07:12:36;;;;;;;30.07;22.10;;;14.10;1.00;;;;;;6174873;23;20392;-80
2022/10/22 07:15:05;;;;;;;27.47;20.50;;;14.10;1.00;;;;;;6190984;23;20404;-80
2022/10/22 07:17:32;;;;;;;28.53;19.77;;;14.10;1.00;;;;;;6192018;23;20497;-81
2022/10/22 07:20:03;;;;;;;28.77;19.27;;;14.20;1.00;;;;;;6195151;23;20430;-79
2022/10/22 07:22:32;;;;;;;26.67;19.43;;;14.20;1.00;;;;;;6190209;23;20756;-82
2022/10/22 07:25:02;;;;;;;27.50;20.37;;;14.30;1.00;;;;;;6190798;23;20420;-80
2022/10/22 07:27:32;;;;;;;27.97;20.43;;;14.20;1.00;;;;;;6190559;23;20522;-79
2022/10/22 07:30:03;;;;;;;26.87;20.10;;;14.30;1.00;;;;;;6184643;23;20832;-80
2022/10/22 07:32:30;;;;;;;26.33;19.03;;;14.40;1.00;;;;;;6190548;23;21201;-80
2022/10/22 07:34:59;;;;;;;25.03;18.83;;;14.50;1.00;;;;;;6192121;23;20429;-80
2022/10/22 07:37:27;;;;;;;24.87;19.37;;;14.60;1.00;;;;;;6193296;23;20438;-82
2022/10/22 07:39:54;;;;;;;26.87;19.47;;;14.70;1.00;;;;;;6193543;23;20428;-80
2022/10/22 07:42:23;;;;;;;23.50;17.83;;;14.80;1.00;;;;;;6194996;23;21101;-80
2022/10/22 07:44:55;;;;;;;26.00;19.27;;;14.90;1.00;;;;;;6192655;23;20416;-80
2022/10/22 07:47:23;;;;;;;24.20;18.80;;;15.00;1.00;;;;;;6225530;23;20941;-80
2022/10/22 07:49:52;;;;;;;25.73;20.00;;;15.00;1.00;;;;;;6223688;23;20456;-81
2022/10/22 07:52:21;;;;;;;24.67;20.17;;;15.20;1.00;;;;;;6224615;23;20748;-79
2022/10/22 07:55:01;;;;;;;24.90;18.77;;;15.20;1.00;;;;;;6223818;23;20423;-79
2022/10/22 07:57:28;;;;;;;22.63;18.43;;;15.20;1.00;;;;;;6224260;23;20836;-83
2022/10/22 07:59:56;;;;;;;23.00;18.93;;;15.20;1.00;;;;;;6223156;23;20430;-80
2022/10/22 08:02:24;;;;;;;21.37;18.37;;;15.20;1.00;;;;;;6183743;23;20421;-79
2022/10/22 08:04:52;;;;;;;20.60;18.40;;;15.30;1.00;;;;;;6223753;23;20415;-80
2022/10/22 08:07:19;;;;;;;25.33;19.10;;;15.30;1.00;;;;;;6197165;23;20526;-80
2022/10/22 08:09:46;;;;;;;23.57;17.80;;;15.30;1.00;;;;;;6222577;23;20425;-79
2022/10/22 08:12:14;;;;;;;22.60;17.90;;;15.40;1.00;;;;;;6226084;23;20405;-80
2022/10/22 08:14:41;;;;;;;26.90;20.50;;;15.40;1.00;;;;;;6224918;23;20431;-80
2022/10/22 08:17:10;;;;;;;24.10;19.83;;;15.50;1.00;;;;;;6226077;23;20423;-80
2022/10/22 08:19:37;;;;;;;25.30;18.07;;;15.50;1.00;;;;;;6223207;23;21190;-81
2022/10/22 08:22:04;;;;;;;20.80;17.40;;;15.40;1.00;;;;;;6225853;23;20453;-80
2022/10/22 08:24:31;;;;;;;22.10;16.80;;;15.50;1.00;;;;;;6224206;23;20863;-80
2022/10/22 08:27:05;;;;;;;22.67;18.57;;;15.60;1.00;;;;;;6221673;23;20427;-81
2022/10/22 08:29:34;;;;;;;22.80;17.63;;;15.60;1.00;;;;;;6223145;23;20799;-82
2022/10/22 08:32:03;;;;;;;37.63;27.83;;;15.70;1.00;;;;;;6223196;23;20825;-80
2022/10/22 08:34:34;;;;;;;25.87;22.47;;;15.70;1.00;;;;;;6221483;23;20914;-77
2022/10/22 08:37:01;;;;;;;29.40;24.97;;;15.80;1.00;;;;;;6223125;23;20458;-78
2022/10/22 08:39:28;;;;;;;24.97;21.20;;;15.90;1.00;;;;;;6221160;23;20430;-76
2022/10/22 08:42:04;;;;;;;25.10;21.63;;;16.00;1.00;;;;;;6220303;23;20456;-78
2022/10/22 08:44:57;;;;;;;21.20;17.10;;;16.00;1.00;;;;;;6214702;23;20417;-77
2022/10/22 08:47:50;;;;;;;23.07;17.43;;;16.00;1.00;;;;;;6221607;23;20475;-81
2022/10/22 08:50:24;;;;;;;21.73;16.03;;;16.10;1.00;;;;;;6191577;23;20561;-78
2022/10/22 08:52:56;;;;;;;22.40;16.63;;;16.10;1.00;;;;;;6187792;23;20921;-79
2022/10/22 08:55:25;;;;;;;19.40;14.57;;;16.10;1.00;;;;;;6190917;23;20496;-80
2022/10/22 08:58:00;;;;;;;17.30;15.40;;;16.10;1.00;;;;;;6200789;23;20425;-77
2022/10/22 09:00:34;;;;;;;18.80;16.50;;;16.10;1.00;;;;;;6190740;23;20443;-77
2022/10/22 09:03:16;;;;;;;17.97;15.47;;;16.10;1.00;;;;;;6193504;23;20714;-79
2022/10/22 09:05:52;;;;;;;20.57;16.33;;;16.20;1.00;;;;;;6189276;23;20422;-79
2022/10/22 09:08:28;;;;;;;19.33;16.80;;;16.30;1.00;;;;;;6189986;23;20512;-78
2022/10/22 09:11:03;;;;;;;19.10;16.10;;;16.30;1.00;;;;;;6222827;23;20440;-77
2022/10/22 09:13:30;;;;;;;18.37;15.63;;;16.30;1.00;;;;;;6219855;23;20734;-78
2022/10/22 09:16:10;;;;;;;21.87;17.10;;;16.30;1.00;;;;;;6221244;23;20525;-78
2022/10/22 09:18:48;;;;;;;18.90;16.90;;;16.40;1.00;;;;;;6218905;23;21022;-77
2022/10/22 09:21:31;;;;;;;18.97;15.37;;;16.50;1.00;;;;;;6203684;23;20530;-79
2022/10/22 09:24:08;;;;;;;19.00;15.97;;;16.60;1.00;;;;;;6213313;23;20409;-78
2022/10/22 09:29:28;;;;;;;17.80;15.27;;;16.70;1.00;;;;;;6228737;23;20524;-78
2022/10/22 09:31:59;;;;;;;21.00;16.27;;;16.80;1.00;;;;;;6228804;23;20823;-79
2022/10/22 09:34:26;;;;;;;18.40;14.53;;;16.80;1.00;;;;;;6232604;23;20413;-78
2022/10/22 09:36:58;;;;;;;19.87;14.70;;;16.90;1.00;;;;;;6189249;23;20588;-78
2022/10/22 09:39:35;;;;;;;18.70;16.50;;;17.00;1.00;;;;;;6231584;23;20432;-81
2022/10/22 09:42:02;;;;;;;18.70;14.50;;;17.20;1.00;;;;;;6210000;23;20452;-78
2022/10/22 09:44:33;;;;;;;18.03;15.33;;;17.30;1.00;;;;;;6183639;23;20443;-81
2022/10/22 09:47:05;;;;;;;20.67;14.93;;;17.40;1.00;;;;;;6166516;23;20427;-81
2022/10/22 09:49:37;;;;;;;17.57;14.37;;;17.40;1.00;;;;;;6195515;23;20436;-81
2022/10/22 09:52:25;;;;;;;19.43;14.70;;;17.30;1.00;;;;;;6203364;23;20445;-82
2022/10/22 09:54:53;;;;;;;17.67;13.87;;;17.30;1.00;;;;;;6204408;23;20406;-80
2022/10/22 09:57:26;;;;;;;19.40;16.47;;;17.40;1.00;;;;;;6202490;23;20451;-80
2022/10/22 09:59:56;;;;;;;17.50;14.90;;;17.50;1.00;;;;;;6159767;23;20424;-79
2022/10/22 10:02:33;;;;;;;16.77;14.13;;;17.50;1.00;;;;;;6204147;23;20434;-79
2022/10/22 10:05:11;;;;;;;18.47;14.67;;;17.70;1.00;;;;;;6198993;23;20427;-82
2022/10/22 10:07:38;;;;;;;17.53;13.20;;;17.90;1.00;;;;;;6199317;23;20479;-82
2022/10/22 10:10:19;;;;;;;17.50;13.30;;;18.00;1.00;;;;;;6201446;23;20374;-83
2022/10/22 10:12:56;;;;;;;18.37;14.30;;;18.00;1.00;;;;;;6201496;23;20436;-83
2022/10/22 10:15:38;;;;;;;19.10;14.07;;;18.20;1.00;;;;;;6201696;22;20892;-80
2022/10/22 10:18:22;;;;;;;17.70;13.70;;;18.00;1.00;;;;;;6199937;23;20448;-81
2022/10/22 10:21:02;;;;;;;15.70;13.30;;;18.00;1.00;;;;;;6197609;23;20389;-83
2022/10/22 10:23:42;;;;;;;22.57;14.47;;;17.90;1.00;;;;;;6202344;23;20397;-82
2022/10/22 10:26:15;;;;;;;16.50;13.77;;;17.80;1.00;;;;;;6207372;23;20470;-82
2022/10/22 10:29:03;;;;;;;18.53;14.53;;;17.80;1.00;;;;;;6205915;23;20426;-82
2022/10/22 10:31:52;;;;;;;17.80;14.27;;;17.80;1.00;;;;;;6197941;23;20424;-83
2022/10/22 10:34:42;;;;;;;16.07;13.70;;;17.70;1.00;;;;;;6200881;23;20443;-84
2022/10/22 10:37:31;;;;;;;19.13;14.10;;;17.70;1.00;;;;;;6201764;23;20383;-82
2022/10/22 10:40:16;;;;;;;15.63;13.73;;;17.70;1.00;;;;;;6200019;23;20428;-84
2022/10/22 10:42:50;;;;;;;20.00;14.77;;;17.60;1.00;;;;;;6197767;23;20436;-79
2022/10/22 10:45:25;;;;;;;17.63;14.80;;;17.70;1.00;;;;;;6202782;23;20444;-79
2022/10/22 10:48:15;;;;;;;19.93;14.00;;;17.70;1.00;;;;;;6206600;23;20432;-83
2022/10/22 10:51:14;;;;;;;17.10;14.70;;;17.70;1.00;;;;;;6233227;23;20540;-83
2022/10/22 10:54:04;;;;;;;18.10;14.07;;;17.80;1.00;;;;;;6234426;23;20384;-84
2022/10/22 10:56:44;;;;;;;20.63;15.57;;;17.80;1.00;;;;;;6232212;23;20420;-81
2022/10/22 10:59:36;;;;;;;18.10;14.50;;;17.90;1.00;;;;;;6231625;23;20402;-84
2022/10/22 11:02:35;;;;;;;23.43;16.03;;;17.90;1.00;;;;;;6233624;23;20419;-81
2022/10/22 11:05:25;;;;;;;17.83;14.17;;;18.10;1.00;;;;;;6228034;23;20515;-83
2022/10/22 11:08:05;;;;;;;19.73;13.83;;;18.50;1.00;;;;;;6211288;23;20376;-79
2022/10/22 11:10:39;;;;;;;16.37;13.40;;;19.30;1.00;;;;;;6199151;23;20393;-83
2022/10/22 11:13:23;;;;;;;15.10;13.00;;;20.00;1.00;;;;;;6230213;23;21043;-80
2022/10/22 11:16:13;;;;;;;16.97;13.20;;;20.70;1.00;;;;;;6228891;23;20494;-80
2022/10/22 11:18:44;;;;;;;16.83;13.67;;;21.10;1.00;;;;;;6230459;23;20441;-84
2022/10/22 11:21:22;;;;;;;17.73;13.70;;;21.30;1.00;;;;;;6234763;23;20448;-83
2022/10/22 11:24:14;;;;;;;19.90;15.10;;;21.20;1.00;;;;;;6230626;23;20466;-85
2022/10/22 11:26:45;;;;;;;21.60;13.63;;;21.30;1.00;;;;;;6189648;23;20464;-84
2022/10/22 11:29:17;;;;;;;18.63;14.03;;;21.40;1.00;;;;;;6231657;23;20460;-83
2022/10/22 11:31:45;;;;;;;18.33;15.50;;;21.30;1.00;;;;;;6230772;23;20448;-84
2022/10/22 11:34:22;;;;;;;18.13;14.27;;;21.30;1.00;;;;;;6228975;23;20385;-80
2022/10/22 11:36:54;;;;;;;19.63;14.77;;;21.40;1.00;;;;;;6229821;23;20389;-82
2022/10/22 11:39:42;;;;;;;18.37;15.30;;;21.20;1.00;;;;;;6231363;23;20492;-81
2022/10/22 11:42:24;;;;;;;20.70;16.10;;;21.10;1.00;;;;;;6227019;23;20456;-84
2022/10/22 11:45:05;;;;;;;17.80;15.90;;;21.40;1.00;;;;;;6229836;23;20414;-82
2022/10/22 11:47:35;;;;;;;24.57;17.37;;;22.40;1.00;;;;;;6202357;23;20381;-84
2022/10/22 11:50:23;;;;;;;23.37;17.13;;;23.20;1.00;;;;;;6205677;23;20390;-84
2022/10/22 11:53:02;;;;;;;21.77;17.40;;;23.70;1.00;;;;;;6203583;23;20401;-84
2022/10/22 11:55:46;;;;;;;17.80;13.43;;;23.40;1.00;;;;;;6203002;23;20405;-85
2022/10/22 11:58:37;;;;;;;19.20;14.13;;;24.50;1.00;;;;;;6200700;23;20398;-81
2022/10/22 12:01:25;;;;;;;19.60;15.20;;;26.00;1.00;;;;;;6169127;23;20866;-85
2022/10/22 12:04:17;;;;;;;23.47;14.70;;;26.50;1.00;;;;;;6184077;23;20437;-85
2022/10/22 12:06:59;;;;;;;15.77;12.73;;;27.10;1.00;;;;;;6172896;23;20426;-84
2022/10/22 12:09:42;;;;;;;15.93;12.60;;;29.20;1.00;;;;;;6151950;23;20508;-84
2022/10/22 12:12:18;;;;;;;13.97;12.43;;;30.60;1.00;;;;;;6172555;23;20406;-84
2022/10/22 12:14:54;;;;;;;12.73;11.27;;;31.80;1.00;;;;;;6171590;23;20429;-85
2022/10/22 12:17:26;;;;;;;17.17;11.97;;;31.70;1.00;;;;;;6171307;23;20947;-85
2022/10/22 12:20:03;;;;;;;13.63;11.70;;;30.30;1.00;;;;;;6132193;23;20429;-83
2022/10/22 12:22:37;;;;;;;13.57;11.60;;;28.50;1.00;;;;;;6196727;23;20434;-80
2022/10/22 12:25:17;;;;;;;16.73;13.20;;;27.00;1.00;;;;;;6201533;23;20414;-78
2022/10/22 12:27:53;;;;;;;13.97;11.60;;;26.20;1.00;;;;;;6197212;23;20981;-80
2022/10/22 12:30:22;;;;;;;15.37;10.67;;;25.30;1.00;;;;;;6201389;23;20464;-79
2022/10/22 12:33:04;;;;;;;16.07;12.40;;;24.40;1.00;;;;;;6160785;23;20432;-81
2022/10/22 12:35:44;;;;;;;14.87;11.80;;;23.70;1.00;;;;;;6199044;22;20396;-82
2022/10/22 12:38:25;;;;;;;14.10;11.27;;;23.50;1.00;;;;;;6252545;22;20428;-78
2022/10/22 12:40:55;;;;;;;13.43;9.97;;;23.70;1.00;;;;;;6262143;22;21127;-81
2022/10/22 12:43:33;;;;;;;12.20;8.80;;;24.80;1.00;;;;;;6263489;22;20501;-84
2022/10/22 12:46:13;;;;;;;15.30;8.30;;;25.90;1.00;;;;;;6262204;22;20454;-84
2022/10/22 12:48:46;;;;;;;14.93;10.40;;;26.20;1.00;;;;;;6259743;22;20387;-82
2022/10/22 12:51:18;;;;;;;12.57;9.07;;;25.70;1.00;;;;;;6262875;22;20387;-82
2022/10/22 12:53:52;;;;;;;12.07;8.50;;;25.20;1.00;;;;;;6236476;22;20434;-82
2022/10/22 12:56:34;;;;;;;11.10;8.57;;;24.90;1.00;;;;;;6262839;22;20415;-79
2022/10/22 12:59:13;;;;;;;12.90;7.93;;;24.20;1.00;;;;;;6261892;22;20394;-81
2022/10/22 13:01:44;;;;;;;12.17;6.93;;;24.00;1.00;;;;;;6258324;22;20406;-82
2022/10/22 13:04:21;;;;;;;10.47;7.40;;;24.20;1.00;;;;;;6260256;22;20443;-81
2022/10/22 13:06:53;;;;;;;16.97;8.23;;;25.00;1.00;;;;;;6260542;22;20411;-80
2022/10/22 13:09:24;;;;;;;10.30;6.10;;;25.20;1.00;;;;;;6260116;22;20579;-80
2022/10/22 13:12:03;;;;;;;10.87;5.30;;;25.50;1.00;;;;;;6260447;22;20383;-79